createdAt,value
2019-01-20T00:01:42.901Z,26.27
2019-01-20T00:04:12.173Z,26.83
2019-01-20T00:06:41.555Z,29.13
2019-01-20T00:09:11.508Z,26.77
2019-01-20T00:11:40.819Z,29.37
2019-01-20T00:14:10.148Z,27.43
2019-01-20T00:16:39.466Z,23.63
2019-01-20T00:19:08.730Z,28.40
2019-01-20T00:21:38.029Z,24.10
2019-01-20T00:24:07.395Z,28.67
2019-01-20T00:26:36.725Z,21.77
2019-01-20T00:29:06.953Z,32.57
2019-01-20T00:31:35.257Z,52.23
2019-01-20T00:34:04.579Z,32.77
2019-01-20T00:36:33.911Z,28.13
2019-01-20T00:39:03.329Z,33.10
2019-01-20T00:41:32.630Z,28.53
2019-01-20T00:44:01.979Z,29.13
2019-01-20T00:46:31.278Z,30.43
2019-01-20T00:49:00.549Z,30.17
2019-01-20T00:51:29.871Z,30.43
2019-01-20T00:53:59.235Z,31.57
2019-01-20T00:56:28.567Z,29.63
2019-01-20T00:58:58.036Z,30.07
2019-01-20T01:01:27.370Z,34.50
2019-01-20T01:03:56.693Z,27.50
2019-01-20T01:06:25.981Z,29.83
2019-01-20T01:08:55.248Z,33.37
2019-01-20T01:11:31.412Z,31.23
2019-01-20T01:13:53.807Z,35.57
2019-01-20T01:16:23.089Z,31.33
2019-01-20T01:18:52.332Z,33.50
2019-01-20T01:21:21.565Z,33.13
2019-01-20T01:23:50.897Z,30.87
2019-01-20T01:26:20.204Z,29.53
2019-01-20T01:28:49.524Z,30.63
2019-01-20T01:31:18.821Z,34.27
2019-01-20T01:33:48.147Z,32.80
2019-01-20T01:36:17.473Z,27.57
2019-01-20T01:38:46.717Z,34.13
2019-01-20T01:41:16.039Z,31.60
2019-01-20T01:43:45.309Z,36.00
2019-01-20T01:46:14.579Z,36.40
2019-01-20T01:48:43.894Z,37.37
2019-01-20T01:51:13.193Z,29.47
2019-01-20T01:53:42.453Z,32.97
2019-01-20T01:56:11.781Z,31.40
2019-01-20T01:58:41.058Z,44.43
2019-01-20T02:01:10.330Z,41.13
2019-01-20T02:03:39.650Z,30.67
2019-01-20T02:06:08.917Z,31.50
2019-01-20T02:08:38.241Z,34.77
2019-01-20T02:11:07.505Z,36.00
2019-01-20T02:13:36.789Z,33.70
2019-01-20T02:16:08.790Z,33.33
2019-01-20T02:18:38.131Z,28.23
2019-01-20T02:21:07.500Z,37.77
2019-01-20T02:23:38.923Z,32.53
2019-01-20T02:26:06.296Z,31.83
2019-01-20T02:28:35.594Z,31.50
2019-01-20T02:31:04.865Z,34.40
2019-01-20T02:33:34.133Z,41.70
2019-01-20T02:36:03.501Z,39.30
2019-01-20T02:38:32.766Z,40.33
2019-01-20T02:41:02.027Z,42.90
2019-01-20T02:43:31.314Z,34.37
2019-01-20T02:46:00.572Z,38.47
2019-01-20T02:48:29.829Z,42.67
2019-01-20T02:50:59.114Z,34.27
2019-01-20T02:53:28.431Z,39.77
2019-01-20T02:55:57.761Z,34.73
2019-01-20T02:58:27.091Z,32.27
2019-01-20T03:00:56.325Z,42.07
2019-01-20T03:03:25.576Z,38.47
2019-01-20T03:05:54.853Z,35.83
2019-01-20T03:08:24.101Z,34.67
2019-01-20T03:10:53.463Z,33.87
2019-01-20T03:13:22.700Z,39.43
2019-01-20T03:15:52.015Z,38.20
2019-01-20T03:18:21.280Z,37.83
2019-01-20T03:20:50.566Z,30.83
2019-01-20T03:23:19.818Z,37.03
2019-01-20T03:25:49.131Z,34.93
2019-01-20T03:28:18.396Z,36.53
2019-01-20T03:30:47.708Z,35.37
2019-01-20T03:33:16.978Z,34.60
2019-01-20T03:35:46.366Z,37.07
2019-01-20T03:38:15.636Z,34.73
2019-01-20T03:40:45.060Z,35.10
2019-01-20T03:43:14.307Z,35.20
2019-01-20T03:45:43.634Z,34.00
2019-01-20T03:48:12.907Z,35.77
2019-01-20T03:50:42.169Z,36.23
2019-01-20T03:53:11.447Z,33.97
2019-01-20T03:55:40.696Z,35.83
2019-01-20T03:58:09.996Z,38.13
2019-01-20T04:00:39.235Z,39.93
2019-01-20T04:03:08.520Z,36.30
2019-01-20T04:05:37.766Z,35.57
2019-01-20T04:08:07.077Z,35.80
2019-01-20T04:10:36.342Z,34.10
2019-01-20T04:13:05.648Z,38.00
2019-01-20T04:15:34.885Z,32.87
2019-01-20T04:18:04.160Z,37.33
2019-01-20T04:20:33.393Z,34.57
2019-01-20T04:23:02.621Z,31.70
2019-01-20T04:25:31.879Z,32.60
2019-01-20T04:28:01.251Z,39.87
2019-01-20T04:30:30.567Z,36.90
2019-01-20T04:32:59.854Z,37.57
2019-01-20T04:35:29.238Z,42.27
2019-01-20T04:37:58.552Z,36.37
2019-01-20T04:40:27.810Z,36.43
2019-01-20T04:42:57.078Z,36.10
2019-01-20T04:45:26.343Z,37.37
2019-01-20T04:47:55.595Z,38.57
2019-01-20T04:50:25.202Z,34.40
2019-01-20T04:52:54.471Z,36.47
2019-01-20T04:55:23.838Z,40.40
2019-01-20T04:57:54.345Z,36.17
2019-01-20T05:00:25.350Z,40.13
2019-01-20T05:02:54.766Z,38.17
2019-01-20T05:05:24.247Z,39.77
2019-01-20T05:07:53.523Z,42.30
2019-01-20T05:10:22.746Z,36.23
2019-01-20T05:12:52.018Z,38.80
2019-01-20T05:15:23.116Z,36.40
2019-01-20T05:17:52.376Z,38.47
2019-01-20T05:20:21.650Z,36.10
2019-01-20T05:22:50.909Z,35.23
2019-01-20T05:25:20.150Z,40.90
2019-01-20T05:27:49.473Z,37.90
2019-01-20T05:30:25.959Z,37.90
2019-01-20T05:32:55.264Z,41.30
2019-01-20T05:35:24.547Z,38.13
2019-01-20T05:37:53.853Z,39.57
2019-01-20T05:40:23.184Z,34.47
2019-01-20T05:42:52.453Z,36.00
2019-01-20T05:45:23.605Z,37.70
2019-01-20T05:47:52.900Z,39.17
2019-01-20T05:50:22.170Z,38.50
2019-01-20T05:52:51.494Z,34.93
2019-01-20T05:55:20.783Z,34.87
2019-01-20T05:57:50.043Z,38.67
2019-01-20T06:00:27.414Z,39.17
2019-01-20T06:02:56.650Z,36.87
2019-01-20T06:05:25.949Z,37.13
2019-01-20T06:07:55.152Z,37.97
2019-01-20T06:10:24.504Z,37.80
2019-01-20T06:12:54.527Z,42.37
2019-01-20T06:15:23.830Z,34.90
2019-01-20T06:17:53.073Z,43.10
2019-01-20T06:20:22.436Z,39.50
2019-01-20T06:22:51.712Z,37.27
2019-01-20T06:25:21.007Z,40.80
2019-01-20T06:27:50.314Z,38.40
2019-01-20T06:30:28.144Z,35.00
2019-01-20T06:32:57.516Z,36.33
2019-01-20T06:35:26.919Z,40.67
2019-01-20T06:37:56.170Z,36.87
2019-01-20T06:40:25.458Z,40.17
2019-01-20T06:43:01.318Z,36.93
2019-01-20T06:45:24.027Z,35.73
2019-01-20T06:47:53.364Z,37.97
2019-01-20T06:50:22.632Z,39.40
2019-01-20T06:52:51.926Z,41.33
2019-01-20T06:55:21.848Z,40.97
2019-01-20T06:57:50.497Z,42.10
2019-01-20T07:00:21.500Z,41.00
2019-01-20T07:02:50.774Z,39.50
2019-01-20T07:05:20.021Z,44.13
2019-01-20T07:07:49.300Z,41.23
2019-01-20T07:10:18.678Z,37.23
2019-01-20T07:12:47.944Z,36.97
2019-01-20T07:15:19.223Z,38.23
2019-01-20T07:17:48.623Z,37.37
2019-01-20T07:20:17.888Z,36.23
2019-01-20T07:22:47.227Z,44.20
2019-01-20T07:25:16.509Z,39.57
2019-01-20T07:27:45.826Z,42.10
2019-01-20T07:30:17.313Z,41.50
2019-01-20T07:32:46.595Z,40.80
2019-01-20T07:35:15.889Z,38.07
2019-01-20T07:37:45.296Z,42.27
2019-01-20T07:40:15.586Z,40.73
2019-01-20T07:42:44.861Z,40.63
2019-01-20T07:45:14.864Z,39.70
2019-01-20T07:47:44.125Z,33.13
2019-01-20T07:50:18.777Z,38.17
2019-01-20T07:52:48.057Z,39.33
2019-01-20T07:55:17.314Z,40.73
2019-01-20T07:57:46.574Z,36.27
2019-01-20T08:00:17.727Z,38.13
2019-01-20T08:02:47.022Z,35.57
2019-01-20T08:05:16.441Z,39.30
2019-01-20T08:07:45.834Z,39.00
2019-01-20T08:10:20.110Z,39.13
2019-01-20T08:12:49.417Z,36.90
2019-01-20T08:15:18.679Z,44.97
2019-01-20T08:17:48.079Z,36.83
2019-01-20T08:20:18.675Z,35.53
2019-01-20T08:22:48.093Z,43.07
2019-01-20T08:25:18.005Z,34.23
2019-01-20T08:27:47.327Z,38.30
2019-01-20T08:30:18.456Z,40.33
2019-01-20T08:32:47.772Z,62.80
2019-01-20T08:35:17.129Z,44.00
2019-01-20T08:37:46.443Z,39.93
2019-01-20T08:40:18.202Z,40.43
2019-01-20T08:42:47.578Z,36.20
2019-01-20T08:45:24.436Z,43.17
2019-01-20T08:47:57.990Z,33.37
2019-01-20T08:50:27.042Z,39.13
2019-01-20T08:52:56.362Z,37.17
2019-01-20T08:55:25.681Z,34.90
2019-01-20T08:57:54.965Z,34.27
2019-01-20T09:00:24.292Z,41.00
2019-01-20T09:02:53.567Z,37.67
2019-01-20T09:05:22.905Z,33.07
2019-01-20T09:07:52.205Z,38.20
2019-01-20T09:10:26.619Z,41.83
2019-01-20T09:12:57.185Z,42.93
2019-01-20T09:15:26.655Z,39.67
2019-01-20T09:17:55.906Z,43.57
2019-01-20T09:20:25.260Z,42.80
2019-01-20T09:22:54.624Z,43.83
2019-01-20T09:25:24.016Z,48.37
2019-01-20T09:27:53.428Z,49.93
2019-01-20T09:30:22.865Z,50.43
2019-01-20T09:32:52.171Z,47.07
2019-01-20T09:35:21.526Z,43.27
2019-01-20T09:37:50.844Z,48.00
2019-01-20T09:40:20.220Z,46.57
2019-01-20T09:42:49.602Z,55.30
2019-01-20T09:45:25.602Z,56.07
2019-01-20T09:47:55.726Z,47.87
2019-01-20T09:50:25.838Z,51.03
2019-01-20T09:52:55.169Z,50.67
2019-01-20T09:55:24.521Z,55.73
2019-01-20T09:57:53.794Z,50.27
2019-01-20T10:00:24.727Z,57.40
2019-01-20T10:02:54.128Z,47.63
2019-01-20T10:05:23.429Z,46.60
2019-01-20T10:07:52.720Z,59.93
2019-01-20T10:10:22.049Z,54.53
2019-01-20T10:12:51.453Z,49.77
2019-01-20T10:15:20.753Z,50.00
2019-01-20T10:17:50.065Z,50.33
2019-01-20T10:20:25.044Z,50.03
2019-01-20T10:22:54.387Z,52.03
2019-01-20T10:25:23.759Z,54.93
2019-01-20T10:27:53.197Z,51.73
2019-01-20T10:30:24.990Z,51.93
2019-01-20T10:32:54.337Z,54.80
2019-01-20T10:35:26.902Z,62.40
2019-01-20T10:37:57.584Z,50.83
2019-01-20T10:40:26.873Z,55.80
2019-01-20T10:42:56.302Z,72.57
2019-01-20T10:45:25.666Z,64.90
2019-01-20T10:47:54.984Z,54.20
2019-01-20T10:50:24.281Z,54.83
2019-01-20T10:52:53.703Z,53.13
2019-01-20T10:55:23.011Z,55.83
2019-01-20T10:57:52.402Z,48.17
2019-01-20T11:00:24.484Z,49.93
2019-01-20T11:02:53.782Z,54.57
2019-01-20T11:05:25.037Z,51.50
2019-01-20T11:07:52.544Z,52.30
2019-01-20T11:10:21.860Z,50.00
2019-01-20T11:12:51.192Z,50.77
2019-01-20T11:15:20.615Z,56.97
2019-01-20T11:17:49.932Z,50.63
2019-01-20T11:20:19.321Z,55.93
2019-01-20T11:22:51.979Z,49.27
2019-01-20T11:25:27.336Z,52.07
2019-01-20T11:27:56.742Z,53.33
2019-01-20T11:30:26.299Z,52.40
2019-01-20T11:32:55.752Z,55.10
2019-01-20T11:35:25.261Z,48.57
2019-01-20T11:37:54.692Z,57.97
2019-01-20T11:40:24.143Z,87.23
2019-01-20T11:42:53.814Z,52.40
2019-01-20T11:45:25.273Z,46.53
2019-01-20T11:47:54.649Z,54.00
2019-01-20T11:50:24.008Z,51.83
2019-01-20T11:52:53.341Z,54.33
2019-01-20T11:55:22.950Z,53.40
2019-01-20T11:57:52.370Z,55.57
2019-01-20T12:00:23.915Z,50.30
2019-01-20T12:02:53.232Z,55.73
2019-01-20T12:05:22.680Z,53.77
2019-01-20T12:07:52.067Z,51.73
2019-01-20T12:10:21.376Z,55.17
2019-01-20T12:12:54.681Z,78.57
2019-01-20T12:15:24.119Z,52.40
2019-01-20T12:17:53.443Z,51.33
2019-01-20T12:20:22.801Z,50.87
2019-01-20T12:22:52.164Z,50.27
2019-01-20T12:25:21.546Z,51.50
2019-01-20T12:27:50.843Z,51.70
2019-01-20T12:30:22.318Z,50.17
2019-01-20T12:32:51.729Z,49.63
2019-01-20T12:35:21.154Z,49.30
2019-01-20T12:37:50.493Z,43.70
2019-01-20T12:40:25.675Z,48.30
2019-01-20T12:42:55.076Z,43.03
2019-01-20T12:45:24.372Z,44.13
2019-01-20T12:47:53.753Z,43.80
2019-01-20T12:50:23.072Z,43.83
2019-01-20T12:52:52.465Z,44.87
2019-01-20T12:55:21.794Z,45.30
2019-01-20T12:57:51.144Z,47.50
2019-01-20T13:00:20.594Z,43.87
2019-01-20T13:02:49.973Z,44.97
2019-01-20T13:05:19.306Z,42.70
2019-01-20T13:07:48.653Z,46.03
2019-01-20T13:10:18.091Z,40.77
2019-01-20T13:12:47.383Z,44.30
2019-01-20T13:15:18.359Z,44.77
2019-01-20T13:17:47.850Z,47.97
2019-01-20T13:20:19.181Z,48.13
2019-01-20T13:22:48.536Z,44.07
2019-01-20T13:25:23.217Z,51.23
2019-01-20T13:27:52.465Z,53.63
2019-01-20T13:30:23.654Z,54.23
2019-01-20T13:32:52.912Z,54.43
2019-01-20T13:35:22.887Z,48.97
2019-01-20T13:38:06.698Z,51.63
2019-01-20T13:40:57.007Z,119.03
2019-01-20T13:43:26.397Z,70.97
2019-01-20T13:45:55.709Z,60.83
2019-01-20T13:48:24.969Z,55.97
2019-01-20T13:50:54.287Z,48.57
2019-01-20T13:53:23.555Z,46.60
2019-01-20T13:55:52.897Z,50.57
2019-01-20T13:58:22.236Z,52.83
2019-01-20T14:00:51.541Z,53.73
2019-01-20T14:03:21.022Z,47.53
2019-01-20T14:05:50.314Z,49.57
2019-01-20T14:08:19.614Z,48.67
2019-01-20T14:10:49.027Z,47.67
2019-01-20T14:13:18.352Z,46.43
2019-01-20T14:15:47.627Z,41.93
2019-01-20T14:18:16.979Z,40.50
2019-01-20T14:20:46.266Z,39.80
2019-01-20T14:23:15.595Z,51.13
2019-01-20T14:25:44.862Z,47.23
2019-01-20T14:28:14.206Z,47.70
2019-01-20T14:30:43.528Z,44.27
2019-01-20T14:33:12.835Z,39.80
2019-01-20T14:35:42.089Z,40.67
2019-01-20T14:38:11.432Z,36.60
2019-01-20T14:40:40.716Z,39.93
2019-01-20T14:43:10.020Z,65.93
2019-01-20T14:45:39.347Z,115.47
2019-01-20T14:48:08.656Z,48.67
2019-01-20T14:50:37.978Z,41.10
2019-01-20T14:53:07.345Z,41.20
2019-01-20T14:55:36.697Z,44.77
2019-01-20T14:58:06.092Z,40.40
2019-01-20T15:00:36.534Z,43.00
2019-01-20T15:03:06.609Z,41.87
2019-01-20T15:05:35.985Z,46.10
2019-01-20T15:08:06.688Z,42.43
2019-01-20T15:10:36.061Z,44.00
2019-01-20T15:13:05.663Z,42.33
2019-01-20T15:15:36.841Z,45.77
2019-01-20T15:18:06.635Z,47.83
2019-01-20T15:20:35.989Z,48.33
2019-01-20T15:23:05.306Z,47.57
2019-01-20T15:25:34.752Z,49.20
2019-01-20T15:28:04.561Z,52.63
2019-01-20T15:30:33.897Z,52.90
2019-01-20T15:33:03.480Z,50.07
2019-01-20T15:35:32.841Z,47.67
2019-01-20T15:38:02.175Z,54.57
2019-01-20T15:40:31.533Z,54.10
2019-01-20T15:43:00.852Z,54.80
2019-01-20T15:45:30.184Z,60.47
2019-01-20T15:47:59.486Z,64.67
2019-01-20T15:50:32.679Z,67.23
2019-01-20T15:53:02.571Z,62.77
2019-01-20T15:55:31.929Z,69.80
2019-01-20T15:58:01.245Z,63.43
2019-01-20T16:00:31.732Z,67.13
2019-01-20T16:03:01.237Z,65.37
2019-01-20T16:05:30.715Z,61.20
2019-01-20T16:08:00.050Z,72.57
2019-01-20T16:10:29.374Z,62.77
2019-01-20T16:12:58.662Z,61.63
2019-01-20T16:15:30.567Z,72.03
2019-01-20T16:17:59.853Z,72.50
2019-01-20T16:20:31.696Z,64.20
2019-01-20T16:23:02.285Z,73.50
2019-01-20T16:25:33.705Z,71.33
2019-01-20T16:28:02.991Z,79.67
2019-01-20T16:30:34.251Z,74.50
2019-01-20T16:33:03.571Z,65.63
2019-01-20T16:35:32.904Z,67.50
2019-01-20T16:38:03.096Z,64.60
2019-01-20T16:40:32.459Z,68.93
2019-01-20T16:43:01.731Z,66.40
2019-01-20T16:45:42.012Z,67.83
2019-01-20T16:48:08.852Z,70.10
2019-01-20T16:50:38.136Z,70.10
2019-01-20T16:53:07.464Z,64.67
2019-01-20T16:55:36.795Z,75.00
2019-01-20T16:58:06.046Z,72.13
2019-01-20T17:00:37.763Z,143.80
2019-01-20T17:03:07.400Z,172.77
2019-01-20T17:05:36.763Z,131.80
2019-01-20T17:08:06.074Z,81.73
2019-01-20T17:10:37.781Z,75.37
2019-01-20T17:13:07.959Z,80.17
2019-01-20T17:15:39.752Z,74.53
2019-01-20T17:18:09.598Z,68.17
2019-01-20T17:20:39.004Z,73.07
2019-01-20T17:23:08.283Z,70.07
2019-01-20T17:25:37.657Z,68.00
2019-01-20T17:28:06.984Z,71.20
2019-01-20T17:30:36.325Z,65.27
2019-01-20T17:33:06.754Z,68.73
2019-01-20T17:35:36.179Z,67.53
2019-01-20T17:38:05.701Z,76.10
2019-01-20T17:40:35.047Z,77.90
2019-01-20T17:43:04.387Z,78.77
2019-01-20T17:45:36.315Z,69.97
2019-01-20T17:48:05.610Z,76.90
2019-01-20T17:50:36.676Z,74.93
2019-01-20T17:53:07.027Z,79.73
2019-01-20T17:55:36.320Z,75.97
2019-01-20T17:58:05.721Z,65.40
2019-01-20T18:00:37.813Z,78.17
2019-01-20T18:03:07.377Z,69.60
2019-01-20T18:05:36.749Z,74.67
2019-01-20T18:08:07.771Z,80.00
2019-01-20T18:10:37.116Z,83.63
2019-01-20T18:13:06.569Z,81.97
2019-01-20T18:15:35.897Z,106.33
2019-01-20T18:18:05.253Z,108.93
2019-01-20T18:20:34.565Z,86.20
2019-01-20T18:23:04.031Z,78.80
2019-01-20T18:25:33.841Z,77.77
2019-01-20T18:28:03.132Z,75.80
2019-01-20T18:30:32.443Z,71.43
2019-01-20T18:33:01.720Z,76.73
2019-01-20T18:35:31.224Z,80.30
2019-01-20T18:38:00.702Z,77.47
2019-01-20T18:40:30.059Z,81.13
2019-01-20T18:42:59.317Z,71.17
2019-01-20T18:45:31.623Z,71.47
2019-01-20T18:48:00.924Z,73.70
2019-01-20T18:50:32.298Z,83.53
2019-01-20T18:53:01.567Z,75.77
2019-01-20T18:55:30.939Z,82.60
2019-01-20T18:58:00.327Z,72.97
2019-01-20T19:00:37.839Z,83.27
2019-01-20T19:03:07.135Z,92.13
2019-01-20T19:05:36.439Z,151.03
2019-01-20T19:08:05.705Z,215.63
2019-01-20T19:10:34.987Z,183.47
2019-01-20T19:13:04.349Z,127.23
2019-01-20T19:15:33.670Z,101.97
2019-01-20T19:18:03.011Z,99.97
2019-01-20T19:20:32.248Z,93.50
2019-01-20T19:23:01.532Z,88.60
2019-01-20T19:25:30.887Z,90.63
2019-01-20T19:28:00.162Z,94.20
2019-01-20T19:30:31.550Z,89.03
2019-01-20T19:33:00.870Z,86.53
2019-01-20T19:35:30.161Z,83.00
2019-01-20T19:37:59.481Z,96.83
2019-01-20T19:40:28.776Z,95.10
2019-01-20T19:42:58.091Z,90.20
2019-01-20T19:45:27.779Z,88.80
2019-01-20T19:47:57.055Z,82.87
2019-01-20T19:50:26.316Z,79.87
2019-01-20T19:52:55.643Z,134.30
2019-01-20T19:55:29.996Z,142.77
2019-01-20T19:57:59.348Z,116.63
2019-01-20T20:00:29.108Z,96.20
2019-01-20T20:02:58.535Z,93.03
2019-01-20T20:05:28.047Z,86.97
2019-01-20T20:07:57.944Z,89.30
2019-01-20T20:10:27.651Z,77.57
2019-01-20T20:12:57.749Z,85.73
2019-01-20T20:15:27.586Z,71.50
2019-01-20T20:17:56.995Z,86.40
2019-01-20T20:20:26.235Z,73.10
2019-01-20T20:22:55.549Z,75.30
2019-01-20T20:25:25.958Z,81.93
2019-01-20T20:27:55.858Z,74.30
2019-01-20T20:30:36.110Z,76.17
2019-01-20T20:33:05.753Z,78.90
2019-01-20T20:35:35.120Z,73.37
2019-01-20T20:38:06.089Z,65.13
2019-01-20T20:40:35.396Z,74.80
2019-01-20T20:43:04.662Z,146.43
2019-01-20T20:45:34.055Z,130.33
2019-01-20T20:48:03.353Z,86.60
2019-01-20T20:50:32.692Z,75.57
2019-01-20T20:53:02.113Z,78.27
2019-01-20T20:55:31.426Z,68.97
2019-01-20T20:58:00.683Z,76.30
2019-01-20T21:00:39.162Z,69.90
2019-01-20T21:03:20.579Z,222.97
2019-01-20T21:05:49.879Z,115.67
2019-01-20T21:08:19.244Z,84.43
2019-01-20T21:10:48.668Z,76.97
2019-01-20T21:13:18.131Z,67.13
2019-01-20T21:15:47.474Z,72.63
2019-01-20T21:18:16.839Z,75.33
2019-01-20T21:20:46.140Z,71.27
2019-01-20T21:23:15.580Z,81.13
2019-01-20T21:25:44.963Z,82.07
2019-01-20T21:28:14.344Z,78.60
2019-01-20T21:30:43.608Z,78.47
2019-01-20T21:33:12.876Z,93.50
2019-01-20T21:35:42.247Z,86.93
2019-01-20T21:38:11.795Z,101.20
2019-01-20T21:40:41.268Z,78.90
2019-01-20T21:43:10.688Z,89.40
2019-01-20T21:45:40.095Z,95.13
2019-01-20T21:48:09.447Z,81.27
2019-01-20T21:50:38.874Z,86.10
2019-01-20T21:53:08.223Z,91.23
2019-01-20T21:55:37.552Z,94.13
2019-01-20T21:58:06.986Z,91.97
2019-01-20T22:00:36.311Z,91.13
2019-01-20T22:03:05.935Z,131.13
2019-01-20T22:05:35.338Z,136.40
2019-01-20T22:08:04.591Z,103.87
2019-01-20T22:10:33.890Z,123.03
2019-01-20T22:13:03.297Z,117.53
2019-01-20T22:15:32.563Z,131.40
2019-01-20T22:18:03.243Z,108.70
2019-01-20T22:20:31.939Z,128.20
2019-01-20T22:23:01.231Z,118.97
2019-01-20T22:25:30.544Z,119.77
2019-01-20T22:27:59.991Z,137.87
2019-01-20T22:30:29.347Z,96.57
2019-01-20T22:32:58.621Z,111.33
2019-01-20T22:35:27.944Z,113.50
2019-01-20T22:37:57.332Z,122.37
2019-01-20T22:40:26.669Z,117.80
2019-01-20T22:42:55.961Z,123.37
2019-01-20T22:45:27.086Z,115.93
2019-01-20T22:47:56.366Z,114.07
2019-01-20T22:50:25.797Z,112.27
2019-01-20T22:52:56.442Z,107.27
2019-01-20T22:55:24.306Z,102.47
2019-01-20T22:57:53.595Z,99.37
2019-01-20T23:00:36.048Z,93.17
2019-01-20T23:03:05.631Z,90.93
2019-01-20T23:05:34.936Z,110.00
2019-01-20T23:08:04.482Z,85.60
2019-01-20T23:10:33.809Z,94.60
2019-01-20T23:13:03.167Z,101.03
2019-01-20T23:15:32.459Z,98.87
2019-01-20T23:18:02.348Z,96.13
2019-01-20T23:20:31.584Z,102.03
2019-01-20T23:23:00.946Z,99.17
2019-01-20T23:25:30.306Z,97.93
2019-01-20T23:27:59.632Z,102.20
2019-01-20T23:30:28.970Z,94.20
2019-01-20T23:32:58.260Z,88.73
2019-01-20T23:35:27.534Z,97.93
2019-01-20T23:37:56.836Z,109.27
2019-01-20T23:40:26.283Z,102.83
2019-01-20T23:42:55.635Z,98.43
2019-01-20T23:45:24.953Z,101.00
2019-01-20T23:47:54.310Z,95.37
2019-01-20T23:50:23.544Z,94.13
2019-01-20T23:52:52.817Z,97.90
2019-01-20T23:55:22.177Z,80.87
2019-01-20T23:57:51.437Z,84.40
